sensor_id;sensor_type;location;lat;lon;timestamp;temperature;humidity
12111;DHT22;6119;52.372;8.990;2024-01-27T00:00:46;5.90;99.90
12111;DHT22;6119;52.372;8.990;2024-01-27T00:03:33;5.90;99.90
12111;DHT22;6119;52.372;8.990;2024-01-27T00:06:19;5.80;99.90
12111;DHT22;6119;52.372;8.990;2024-01-27T00:09:06;5.80;99.90
12111;DHT22;6119;52.372;8.990;2024-01-27T00:11:53;5.70;99.90
12111;DHT22;6119;52.372;8.990;2024-01-27T00:14:41;5.60;99.90
12111;DHT22;6119;52.372;8.990;2024-01-27T00:17:29;5.50;99.90
12111;DHT22;6119;52.372;8.990;2024-01-27T00:20:15;5.60;99.90
12111;DHT22;6119;52.372;8.990;2024-01-27T00:23:03;5.50;99.90
12111;DHT22;6119;52.372;8.990;2024-01-27T00:25:49;5.60;99.90
12111;DHT22;6119;52.372;8.990;2024-01-27T00:28:35;5.50;99.90
12111;DHT22;6119;52.372;8.990;2024-01-27T00:31:23;5.60;99.90
12111;DHT22;6119;52.372;8.990;2024-01-27T00:34:10;5.60;99.90
12111;DHT22;6119;52.372;8.990;2024-01-27T00:36:57;5.50;99.90
12111;DHT22;6119;52.372;8.990;2024-01-27T00:39:44;5.40;99.90
12111;DHT22;6119;52.372;8.990;2024-01-27T00:42:31;5.50;99.90
12111;DHT22;6119;52.372;8.990;2024-01-27T00:45:17;5.50;99.90
12111;DHT22;6119;52.372;8.990;2024-01-27T00:48:06;5.30;99.90
12111;DHT22;6119;52.372;8.990;2024-01-27T00:50:53;5.40;99.90
12111;DHT22;6119;52.372;8.990;2024-01-27T00:53:40;5.40;99.90
12111;DHT22;6119;52.372;8.990;2024-01-27T00:56:27;5.40;99.90
12111;DHT22;6119;52.372;8.990;2024-01-27T00:59:14;5.50;99.90
12111;DHT22;6119;52.372;8.990;2024-01-27T01:02:00;5.40;99.90
12111;DHT22;6119;52.372;8.990;2024-01-27T01:04:48;5.40;99.90
12111;DHT22;6119;52.372;8.990;2024-01-27T01:07:35;5.30;99.90
12111;DHT22;6119;52.372;8.990;2024-01-27T01:10:22;5.40;99.90
12111;DHT22;6119;52.372;8.990;2024-01-27T01:13:08;5.40;99.90
12111;DHT22;6119;52.372;8.990;2024-01-27T01:16:05;5.40;99.90
12111;DHT22;6119;52.372;8.990;2024-01-27T01:18:53;5.30;99.90
12111;DHT22;6119;52.372;8.990;2024-01-27T01:21:41;5.40;99.90
12111;DHT22;6119;52.372;8.990;2024-01-27T01:24:29;5.30;99.90
12111;DHT22;6119;52.372;8.990;2024-01-27T01:27:16;5.40;99.90
12111;DHT22;6119;52.372;8.990;2024-01-27T01:30:05;5.30;99.90
12111;DHT22;6119;52.372;8.990;2024-01-27T01:32:52;5.30;99.90
12111;DHT22;6119;52.372;8.990;2024-01-27T01:35:39;5.20;99.90
12111;DHT22;6119;52.372;8.990;2024-01-27T01:38:27;5.20;99.90
12111;DHT22;6119;52.372;8.990;2024-01-27T01:41:14;5.20;99.90
12111;DHT22;6119;52.372;8.990;2024-01-27T01:44:00;5.20;99.90
12111;DHT22;6119;52.372;8.990;2024-01-27T01:46:47;5.20;99.90
12111;DHT22;6119;52.372;8.990;2024-01-27T01:49:34;5.20;99.90
12111;DHT22;6119;52.372;8.990;2024-01-27T01:52:22;5.20;99.90
12111;DHT22;6119;52.372;8.990;2024-01-27T01:55:10;5.20;99.90
12111;DHT22;6119;52.372;8.990;2024-01-27T01:57:56;5.10;99.90
12111;DHT22;6119;52.372;8.990;2024-01-27T02:00:43;5.10;99.90
12111;DHT22;6119;52.372;8.990;2024-01-27T02:03:30;5.10;99.90
12111;DHT22;6119;52.372;8.990;2024-01-27T02:06:17;5.10;99.90
12111;DHT22;6119;52.372;8.990;2024-01-27T02:09:04;5.20;99.90
12111;DHT22;6119;52.372;8.990;2024-01-27T02:11:52;5.00;99.90
12111;DHT22;6119;52.372;8.990;2024-01-27T02:14:39;5.10;99.90
12111;DHT22;6119;52.372;8.990;2024-01-27T02:17:26;5.10;99.90
12111;DHT22;6119;52.372;8.990;2024-01-27T02:20:12;5.10;99.90
12111;DHT22;6119;52.372;8.990;2024-01-27T02:22:59;5.00;99.90
12111;DHT22;6119;52.372;8.990;2024-01-27T02:25:50;5.10;99.90
12111;DHT22;6119;52.372;8.990;2024-01-27T02:28:37;4.90;99.90
12111;DHT22;6119;52.372;8.990;2024-01-27T02:31:24;5.00;99.90
12111;DHT22;6119;52.372;8.990;2024-01-27T02:34:10;5.00;99.90
12111;DHT22;6119;52.372;8.990;2024-01-27T02:36:56;5.00;99.90
12111;DHT22;6119;52.372;8.990;2024-01-27T02:39:43;5.10;99.90
12111;DHT22;6119;52.372;8.990;2024-01-27T02:42:31;4.90;99.90
12111;DHT22;6119;52.372;8.990;2024-01-27T02:45:18;5.00;99.90
12111;DHT22;6119;52.372;8.990;2024-01-27T02:48:04;5.00;99.90
12111;DHT22;6119;52.372;8.990;2024-01-27T02:50:51;4.90;99.90
12111;DHT22;6119;52.372;8.990;2024-01-27T02:53:38;5.00;99.90
12111;DHT22;6119;52.372;8.990;2024-01-27T02:56:24;5.00;99.90
12111;DHT22;6119;52.372;8.990;2024-01-27T02:59:18;4.90;99.90
12111;DHT22;6119;52.372;8.990;2024-01-27T03:02:06;4.90;99.90
12111;DHT22;6119;52.372;8.990;2024-01-27T03:04:52;4.90;99.90
12111;DHT22;6119;52.372;8.990;2024-01-27T03:07:39;4.90;99.90
12111;DHT22;6119;52.372;8.990;2024-01-27T03:10:25;4.90;99.90
12111;DHT22;6119;52.372;8.990;2024-01-27T03:13:12;4.80;99.90
12111;DHT22;6119;52.372;8.990;2024-01-27T03:15:59;4.90;99.90
12111;DHT22;6119;52.372;8.990;2024-01-27T03:18:46;4.90;99.90
12111;DHT22;6119;52.372;8.990;2024-01-27T03:21:33;4.90;99.90
12111;DHT22;6119;52.372;8.990;2024-01-27T03:24:20;4.90;99.90
12111;DHT22;6119;52.372;8.990;2024-01-27T03:27:06;4.80;99.90
12111;DHT22;6119;52.372;8.990;2024-01-27T03:29:53;5.00;99.90
12111;DHT22;6119;52.372;8.990;2024-01-27T03:32:41;4.90;99.90
12111;DHT22;6119;52.372;8.990;2024-01-27T03:35:27;4.80;99.90
12111;DHT22;6119;52.372;8.990;2024-01-27T03:38:14;4.90;99.90
12111;DHT22;6119;52.372;8.990;2024-01-27T03:41:00;4.90;99.90
12111;DHT22;6119;52.372;8.990;2024-01-27T03:43:47;4.90;99.90
12111;DHT22;6119;52.372;8.990;2024-01-27T03:46:33;4.80;99.90
12111;DHT22;6119;52.372;8.990;2024-01-27T03:49:22;4.90;99.90
12111;DHT22;6119;52.372;8.990;2024-01-27T03:52:08;4.90;99.90
12111;DHT22;6119;52.372;8.990;2024-01-27T03:54:55;4.90;99.90
12111;DHT22;6119;52.372;8.990;2024-01-27T03:57:42;4.80;99.90
12111;DHT22;6119;52.372;8.990;2024-01-27T04:00:29;4.90;99.90
12111;DHT22;6119;52.372;8.990;2024-01-27T04:03:18;4.90;99.90
12111;DHT22;6119;52.372;8.990;2024-01-27T04:06:06;5.00;99.90
12111;DHT22;6119;52.372;8.990;2024-01-27T04:08:53;4.90;99.90
12111;DHT22;6119;52.372;8.990;2024-01-27T04:11:40;4.90;99.90
12111;DHT22;6119;52.372;8.990;2024-01-27T04:14:26;4.90;99.90
12111;DHT22;6119;52.372;8.990;2024-01-27T04:17:13;4.90;99.90
12111;DHT22;6119;52.372;8.990;2024-01-27T04:20:07;4.90;99.90
12111;DHT22;6119;52.372;8.990;2024-01-27T04:22:56;4.80;99.90
12111;DHT22;6119;52.372;8.990;2024-01-27T04:25:43;4.80;99.90
12111;DHT22;6119;52.372;8.990;2024-01-27T04:28:29;4.80;99.90
12111;DHT22;6119;52.372;8.990;2024-01-27T04:31:16;4.70;99.90
12111;DHT22;6119;52.372;8.990;2024-01-27T04:34:03;4.70;99.90
12111;DHT22;6119;52.372;8.990;2024-01-27T04:36:49;4.80;99.90
12111;DHT22;6119;52.372;8.990;2024-01-27T04:39:39;4.80;99.90
12111;DHT22;6119;52.372;8.990;2024-01-27T04:42:26;4.70;99.90
12111;DHT22;6119;52.372;8.990;2024-01-27T04:45:15;4.60;99.90
12111;DHT22;6119;52.372;8.990;2024-01-27T04:48:02;4.70;99.90
12111;DHT22;6119;52.372;8.990;2024-01-27T04:50:53;4.60;99.90
12111;DHT22;6119;52.372;8.990;2024-01-27T04:54:00;4.60;99.90
12111;DHT22;6119;52.372;8.990;2024-01-27T05:00:15;4.60;99.90
12111;DHT22;6119;52.372;8.990;2024-01-27T05:03:02;4.50;99.90
12111;DHT22;6119;52.372;8.990;2024-01-27T05:05:52;4.60;99.90
12111;DHT22;6119;52.372;8.990;2024-01-27T05:08:39;4.60;99.90
12111;DHT22;6119;52.372;8.990;2024-01-27T05:11:28;4.60;99.90
12111;DHT22;6119;52.372;8.990;2024-01-27T05:14:16;4.60;99.90
12111;DHT22;6119;52.372;8.990;2024-01-27T05:17:05;4.60;99.90
12111;DHT22;6119;52.372;8.990;2024-01-27T05:19:51;4.60;99.90
12111;DHT22;6119;52.372;8.990;2024-01-27T05:22:38;4.70;99.90
12111;DHT22;6119;52.372;8.990;2024-01-27T05:25:25;4.60;99.90
12111;DHT22;6119;52.372;8.990;2024-01-27T05:28:12;4.60;99.90
12111;DHT22;6119;52.372;8.990;2024-01-27T05:30:59;4.60;99.90
12111;DHT22;6119;52.372;8.990;2024-01-27T05:33:47;4.60;99.90
12111;DHT22;6119;52.372;8.990;2024-01-27T05:36:34;4.60;99.90
12111;DHT22;6119;52.372;8.990;2024-01-27T05:39:21;4.70;99.90
12111;DHT22;6119;52.372;8.990;2024-01-27T05:42:08;4.60;99.90
12111;DHT22;6119;52.372;8.990;2024-01-27T05:44:55;4.60;99.90
12111;DHT22;6119;52.372;8.990;2024-01-27T05:47:42;4.60;99.90
12111;DHT22;6119;52.372;8.990;2024-01-27T05:50:30;4.60;99.90
12111;DHT22;6119;52.372;8.990;2024-01-27T05:53:17;4.50;99.90
12111;DHT22;6119;52.372;8.990;2024-01-27T05:56:04;4.50;99.90
12111;DHT22;6119;52.372;8.990;2024-01-27T05:58:51;4.50;99.90
12111;DHT22;6119;52.372;8.990;2024-01-27T06:01:37;4.50;99.90
12111;DHT22;6119;52.372;8.990;2024-01-27T06:04:26;4.50;99.90
12111;DHT22;6119;52.372;8.990;2024-01-27T06:07:14;4.50;99.90
12111;DHT22;6119;52.372;8.990;2024-01-27T06:10:01;4.50;99.90
12111;DHT22;6119;52.372;8.990;2024-01-27T06:12:47;4.50;99.90
12111;DHT22;6119;52.372;8.990;2024-01-27T06:15:34;4.50;99.90
12111;DHT22;6119;52.372;8.990;2024-01-27T06:18:21;4.40;99.90
12111;DHT22;6119;52.372;8.990;2024-01-27T06:21:37;4.40;99.90
12111;DHT22;6119;52.372;8.990;2024-01-27T06:24:26;4.30;99.90
12111;DHT22;6119;52.372;8.990;2024-01-27T06:27:12;4.30;99.90
12111;DHT22;6119;52.372;8.990;2024-01-27T06:29:59;4.20;99.90
12111;DHT22;6119;52.372;8.990;2024-01-27T06:32:47;4.20;99.90
12111;DHT22;6119;52.372;8.990;2024-01-27T06:35:34;4.20;99.90
12111;DHT22;6119;52.372;8.990;2024-01-27T06:42:05;4.20;99.90
12111;DHT22;6119;52.372;8.990;2024-01-27T06:44:52;4.20;99.90
12111;DHT22;6119;52.372;8.990;2024-01-27T06:47:39;4.00;99.90
12111;DHT22;6119;52.372;8.990;2024-01-27T06:50:26;4.10;99.90
12111;DHT22;6119;52.372;8.990;2024-01-27T06:53:12;4.10;99.90
12111;DHT22;6119;52.372;8.990;2024-01-27T06:55:59;4.10;99.90
12111;DHT22;6119;52.372;8.990;2024-01-27T06:58:47;4.10;99.90
12111;DHT22;6119;52.372;8.990;2024-01-27T07:01:34;4.10;99.90
12111;DHT22;6119;52.372;8.990;2024-01-27T07:04:21;4.10;99.90
12111;DHT22;6119;52.372;8.990;2024-01-27T07:07:07;4.10;99.90
12111;DHT22;6119;52.372;8.990;2024-01-27T07:09:55;4.00;99.90
12111;DHT22;6119;52.372;8.990;2024-01-27T07:12:42;4.00;99.90
12111;DHT22;6119;52.372;8.990;2024-01-27T07:15:30;4.00;99.90
12111;DHT22;6119;52.372;8.990;2024-01-27T07:18:16;4.00;99.90
12111;DHT22;6119;52.372;8.990;2024-01-27T07:21:05;4.00;99.90
12111;DHT22;6119;52.372;8.990;2024-01-27T07:23:54;4.00;99.90
12111;DHT22;6119;52.372;8.990;2024-01-27T07:26:40;4.10;99.90
12111;DHT22;6119;52.372;8.990;2024-01-27T07:29:27;4.00;99.90
12111;DHT22;6119;52.372;8.990;2024-01-27T07:32:16;4.00;99.90
12111;DHT22;6119;52.372;8.990;2024-01-27T07:35:03;4.00;99.90
12111;DHT22;6119;52.372;8.990;2024-01-27T07:37:51;4.00;99.90
12111;DHT22;6119;52.372;8.990;2024-01-27T07:40:38;4.00;99.90
12111;DHT22;6119;52.372;8.990;2024-01-27T07:43:25;4.00;99.90
12111;DHT22;6119;52.372;8.990;2024-01-27T07:46:12;4.00;99.90
12111;DHT22;6119;52.372;8.990;2024-01-27T07:49:01;4.00;99.90
12111;DHT22;6119;52.372;8.990;2024-01-27T07:51:48;4.00;99.90
12111;DHT22;6119;52.372;8.990;2024-01-27T07:54:35;4.00;99.90
12111;DHT22;6119;52.372;8.990;2024-01-27T07:57:24;4.10;99.90
12111;DHT22;6119;52.372;8.990;2024-01-27T08:00:12;4.10;99.90
12111;DHT22;6119;52.372;8.990;2024-01-27T08:02:59;4.10;99.90
12111;DHT22;6119;52.372;8.990;2024-01-27T08:05:47;4.10;99.90
12111;DHT22;6119;52.372;8.990;2024-01-27T08:08:34;4.10;99.90
12111;DHT22;6119;52.372;8.990;2024-01-27T08:11:21;4.20;99.90
12111;DHT22;6119;52.372;8.990;2024-01-27T08:14:07;4.20;99.90
12111;DHT22;6119;52.372;8.990;2024-01-27T08:16:54;4.20;99.90
12111;DHT22;6119;52.372;8.990;2024-01-27T08:19:43;4.20;99.90
12111;DHT22;6119;52.372;8.990;2024-01-27T08:22:31;4.20;99.90
12111;DHT22;6119;52.372;8.990;2024-01-27T08:25:17;4.30;99.90
12111;DHT22;6119;52.372;8.990;2024-01-27T08:28:05;4.20;99.90
12111;DHT22;6119;52.372;8.990;2024-01-27T08:30:52;4.30;99.90
12111;DHT22;6119;52.372;8.990;2024-01-27T08:33:39;4.30;99.90
12111;DHT22;6119;52.372;8.990;2024-01-27T08:36:26;4.40;99.90
12111;DHT22;6119;52.372;8.990;2024-01-27T08:39:13;4.30;99.90
12111;DHT22;6119;52.372;8.990;2024-01-27T08:42:00;4.40;99.90
12111;DHT22;6119;52.372;8.990;2024-01-27T08:44:47;4.50;99.90
12111;DHT22;6119;52.372;8.990;2024-01-27T08:47:33;4.50;99.90
12111;DHT22;6119;52.372;8.990;2024-01-27T08:50:21;4.40;99.90
12111;DHT22;6119;52.372;8.990;2024-01-27T08:53:07;4.50;99.90
12111;DHT22;6119;52.372;8.990;2024-01-27T08:56:11;4.50;99.90
12111;DHT22;6119;52.372;8.990;2024-01-27T08:58:59;4.60;99.90
12111;DHT22;6119;52.372;8.990;2024-01-27T09:01:46;4.70;99.90
12111;DHT22;6119;52.372;8.990;2024-01-27T09:04:32;4.70;99.90
12111;DHT22;6119;52.372;8.990;2024-01-27T09:07:19;4.70;99.90
12111;DHT22;6119;52.372;8.990;2024-01-27T09:10:07;4.70;99.90
12111;DHT22;6119;52.372;8.990;2024-01-27T09:12:55;4.70;99.90
12111;DHT22;6119;52.372;8.990;2024-01-27T09:15:41;5.10;99.90
12111;DHT22;6119;52.372;8.990;2024-01-27T09:18:28;4.80;99.90
12111;DHT22;6119;52.372;8.990;2024-01-27T09:21:15;4.80;99.90
12111;DHT22;6119;52.372;8.990;2024-01-27T09:24:06;4.90;99.90
12111;DHT22;6119;52.372;8.990;2024-01-27T09:26:55;5.00;99.90
12111;DHT22;6119;52.372;8.990;2024-01-27T09:29:43;5.10;99.90
12111;DHT22;6119;52.372;8.990;2024-01-27T09:32:29;5.10;99.90
12111;DHT22;6119;52.372;8.990;2024-01-27T09:35:17;5.10;99.90
12111;DHT22;6119;52.372;8.990;2024-01-27T09:38:04;5.10;99.90
12111;DHT22;6119;52.372;8.990;2024-01-27T09:40:51;5.20;99.90
12111;DHT22;6119;52.372;8.990;2024-01-27T09:43:38;5.10;99.90
12111;DHT22;6119;52.372;8.990;2024-01-27T09:46:29;5.20;99.90
12111;DHT22;6119;52.372;8.990;2024-01-27T09:49:16;5.20;99.90
12111;DHT22;6119;52.372;8.990;2024-01-27T09:52:03;5.20;99.90
12111;DHT22;6119;52.372;8.990;2024-01-27T09:54:50;5.40;99.90
12111;DHT22;6119;52.372;8.990;2024-01-27T09:57:40;5.50;99.90
12111;DHT22;6119;52.372;8.990;2024-01-27T10:00:27;5.50;99.90
12111;DHT22;6119;52.372;8.990;2024-01-27T10:03:16;5.60;99.90
12111;DHT22;6119;52.372;8.990;2024-01-27T10:06:08;5.60;99.90
12111;DHT22;6119;52.372;8.990;2024-01-27T10:08:55;5.60;99.90
12111;DHT22;6119;52.372;8.990;2024-01-27T10:11:46;5.70;99.90
12111;DHT22;6119;52.372;8.990;2024-01-27T10:14:39;5.70;99.90
12111;DHT22;6119;52.372;8.990;2024-01-27T10:17:26;5.70;99.90
12111;DHT22;6119;52.372;8.990;2024-01-27T10:20:19;5.80;99.90
12111;DHT22;6119;52.372;8.990;2024-01-27T10:23:12;5.80;99.90
12111;DHT22;6119;52.372;8.990;2024-01-27T10:25:59;5.90;99.90
12111;DHT22;6119;52.372;8.990;2024-01-27T10:28:52;5.90;99.90
12111;DHT22;6119;52.372;8.990;2024-01-27T10:31:39;6.00;99.90
12111;DHT22;6119;52.372;8.990;2024-01-27T10:34:25;6.10;99.90
12111;DHT22;6119;52.372;8.990;2024-01-27T10:37:14;6.10;99.90
12111;DHT22;6119;52.372;8.990;2024-01-27T10:40:02;6.20;99.90
12111;DHT22;6119;52.372;8.990;2024-01-27T10:42:53;6.20;99.90
12111;DHT22;6119;52.372;8.990;2024-01-27T10:45:45;6.30;99.90
12111;DHT22;6119;52.372;8.990;2024-01-27T10:48:32;6.50;99.90
12111;DHT22;6119;52.372;8.990;2024-01-27T10:51:24;6.40;99.90
12111;DHT22;6119;52.372;8.990;2024-01-27T10:54:18;6.50;99.90
12111;DHT22;6119;52.372;8.990;2024-01-27T10:57:08;6.40;99.90
12111;DHT22;6119;52.372;8.990;2024-01-27T10:59:57;6.60;99.90
12111;DHT22;6119;52.372;8.990;2024-01-27T11:02:44;6.70;99.90
12111;DHT22;6119;52.372;8.990;2024-01-27T11:05:35;6.80;99.90
12111;DHT22;6119;52.372;8.990;2024-01-27T11:08:24;6.80;99.90
12111;DHT22;6119;52.372;8.990;2024-01-27T11:11:15;6.70;99.90
12111;DHT22;6119;52.372;8.990;2024-01-27T11:14:02;6.90;99.90
12111;DHT22;6119;52.372;8.990;2024-01-27T11:16:54;7.00;99.90
12111;DHT22;6119;52.372;8.990;2024-01-27T11:19:41;7.10;99.90
12111;DHT22;6119;52.372;8.990;2024-01-27T11:22:28;7.10;99.90
12111;DHT22;6119;52.372;8.990;2024-01-27T11:25:17;7.20;99.90
12111;DHT22;6119;52.372;8.990;2024-01-27T11:28:13;7.30;99.90
12111;DHT22;6119;52.372;8.990;2024-01-27T11:31:03;7.40;99.90
12111;DHT22;6119;52.372;8.990;2024-01-27T11:33:50;7.50;99.90
12111;DHT22;6119;52.372;8.990;2024-01-27T11:36:40;7.50;99.90
12111;DHT22;6119;52.372;8.990;2024-01-27T11:39:28;7.70;99.90
12111;DHT22;6119;52.372;8.990;2024-01-27T11:42:16;7.80;99.90
12111;DHT22;6119;52.372;8.990;2024-01-27T11:45:05;7.80;99.90
12111;DHT22;6119;52.372;8.990;2024-01-27T11:47:53;7.80;99.90
12111;DHT22;6119;52.372;8.990;2024-01-27T11:50:45;7.80;99.90
12111;DHT22;6119;52.372;8.990;2024-01-27T11:53:31;7.90;99.90
12111;DHT22;6119;52.372;8.990;2024-01-27T11:56:18;7.90;99.90
12111;DHT22;6119;52.372;8.990;2024-01-27T11:59:07;7.90;99.90
12111;DHT22;6119;52.372;8.990;2024-01-27T12:01:55;8.00;99.90
12111;DHT22;6119;52.372;8.990;2024-01-27T12:04:42;8.10;99.90
12111;DHT22;6119;52.372;8.990;2024-01-27T12:07:28;7.90;99.90
12111;DHT22;6119;52.372;8.990;2024-01-27T12:10:16;8.00;99.90
12111;DHT22;6119;52.372;8.990;2024-01-27T12:13:02;8.00;99.90
12111;DHT22;6119;52.372;8.990;2024-01-27T12:15:50;8.10;99.90
12111;DHT22;6119;52.372;8.990;2024-01-27T12:18:38;8.00;99.90
12111;DHT22;6119;52.372;8.990;2024-01-27T12:21:24;8.10;99.90
12111;DHT22;6119;52.372;8.990;2024-01-27T12:24:15;8.00;99.90
12111;DHT22;6119;52.372;8.990;2024-01-27T12:27:07;8.00;99.90
12111;DHT22;6119;52.372;8.990;2024-01-27T12:29:56;7.90;99.90
12111;DHT22;6119;52.372;8.990;2024-01-27T12:32:43;8.10;99.90
12111;DHT22;6119;52.372;8.990;2024-01-27T12:35:31;8.20;99.90
12111;DHT22;6119;52.372;8.990;2024-01-27T12:38:17;8.30;99.90
12111;DHT22;6119;52.372;8.990;2024-01-27T12:41:04;8.20;99.90
12111;DHT22;6119;52.372;8.990;2024-01-27T12:43:51;8.20;99.90
12111;DHT22;6119;52.372;8.990;2024-01-27T12:46:37;8.30;99.90
12111;DHT22;6119;52.372;8.990;2024-01-27T12:49:24;8.30;99.90
12111;DHT22;6119;52.372;8.990;2024-01-27T12:52:13;8.40;99.90
12111;DHT22;6119;52.372;8.990;2024-01-27T12:55:00;8.40;99.90
12111;DHT22;6119;52.372;8.990;2024-01-27T12:57:47;8.40;99.90
12111;DHT22;6119;52.372;8.990;2024-01-27T13:00:34;8.40;99.90
12111;DHT22;6119;52.372;8.990;2024-01-27T13:03:21;8.40;99.90
12111;DHT22;6119;52.372;8.990;2024-01-27T13:06:07;8.50;99.90
12111;DHT22;6119;52.372;8.990;2024-01-27T13:08:56;8.50;99.90
12111;DHT22;6119;52.372;8.990;2024-01-27T13:11:43;8.60;99.90
12111;DHT22;6119;52.372;8.990;2024-01-27T13:14:31;8.60;99.90
12111;DHT22;6119;52.372;8.990;2024-01-27T13:17:17;8.60;99.90
12111;DHT22;6119;52.372;8.990;2024-01-27T13:20:05;8.70;99.90
12111;DHT22;6119;52.372;8.990;2024-01-27T13:22:53;8.60;99.90
12111;DHT22;6119;52.372;8.990;2024-01-27T13:25:41;8.60;99.90
12111;DHT22;6119;52.372;8.990;2024-01-27T13:28:46;8.60;99.90
12111;DHT22;6119;52.372;8.990;2024-01-27T13:31:34;8.70;99.90
12111;DHT22;6119;52.372;8.990;2024-01-27T13:34:21;8.80;99.90
12111;DHT22;6119;52.372;8.990;2024-01-27T13:37:08;8.80;99.90
12111;DHT22;6119;52.372;8.990;2024-01-27T13:39:54;8.90;99.90
12111;DHT22;6119;52.372;8.990;2024-01-27T13:42:44;9.00;99.90
12111;DHT22;6119;52.372;8.990;2024-01-27T13:45:30;9.00;99.90
12111;DHT22;6119;52.372;8.990;2024-01-27T13:48:17;8.90;99.90
12111;DHT22;6119;52.372;8.990;2024-01-27T13:51:04;9.00;99.90
12111;DHT22;6119;52.372;8.990;2024-01-27T13:53:51;9.00;99.90
12111;DHT22;6119;52.372;8.990;2024-01-27T13:56:37;8.90;99.90
12111;DHT22;6119;52.372;8.990;2024-01-27T13:59:25;9.10;99.90
12111;DHT22;6119;52.372;8.990;2024-01-27T14:02:15;9.10;99.90
12111;DHT22;6119;52.372;8.990;2024-01-27T14:05:03;9.10;99.90
12111;DHT22;6119;52.372;8.990;2024-01-27T14:07:51;9.00;99.90
12111;DHT22;6119;52.372;8.990;2024-01-27T14:10:37;9.10;99.90
12111;DHT22;6119;52.372;8.990;2024-01-27T14:13:25;9.10;99.90
12111;DHT22;6119;52.372;8.990;2024-01-27T14:16:12;8.90;99.90
12111;DHT22;6119;52.372;8.990;2024-01-27T14:18:59;8.90;99.90
12111;DHT22;6119;52.372;8.990;2024-01-27T14:21:47;8.80;99.90
12111;DHT22;6119;52.372;8.990;2024-01-27T14:24:33;8.80;99.90
12111;DHT22;6119;52.372;8.990;2024-01-27T14:27:20;8.70;99.90
12111;DHT22;6119;52.372;8.990;2024-01-27T14:30:12;8.70;99.90
12111;DHT22;6119;52.372;8.990;2024-01-27T14:33:01;8.70;99.90
12111;DHT22;6119;52.372;8.990;2024-01-27T14:35:48;8.70;99.90
12111;DHT22;6119;52.372;8.990;2024-01-27T14:38:35;8.60;99.90
12111;DHT22;6119;52.372;8.990;2024-01-27T14:41:22;8.60;99.90
12111;DHT22;6119;52.372;8.990;2024-01-27T14:44:09;8.50;99.90
12111;DHT22;6119;52.372;8.990;2024-01-27T14:46:57;8.50;99.90
12111;DHT22;6119;52.372;8.990;2024-01-27T14:49:44;8.50;99.90
12111;DHT22;6119;52.372;8.990;2024-01-27T14:52:32;8.40;99.90
12111;DHT22;6119;52.372;8.990;2024-01-27T14:55:18;7.70;99.90
12111;DHT22;6119;52.372;8.990;2024-01-27T14:58:05;8.30;99.90
12111;DHT22;6119;52.372;8.990;2024-01-27T15:00:53;8.30;99.90
12111;DHT22;6119;52.372;8.990;2024-01-27T15:03:41;8.30;99.90
12111;DHT22;6119;52.372;8.990;2024-01-27T15:06:29;8.30;99.90
12111;DHT22;6119;52.372;8.990;2024-01-27T15:09:16;8.30;99.90
12111;DHT22;6119;52.372;8.990;2024-01-27T15:12:04;8.30;99.90
12111;DHT22;6119;52.372;8.990;2024-01-27T15:14:50;8.20;99.90
12111;DHT22;6119;52.372;8.990;2024-01-27T15:17:37;8.20;99.90
12111;DHT22;6119;52.372;8.990;2024-01-27T15:20:24;8.20;99.90
12111;DHT22;6119;52.372;8.990;2024-01-27T15:23:12;8.10;99.90
12111;DHT22;6119;52.372;8.990;2024-01-27T15:25:58;8.10;99.90
12111;DHT22;6119;52.372;8.990;2024-01-27T15:28:46;8.00;99.90
12111;DHT22;6119;52.372;8.990;2024-01-27T15:31:33;8.00;99.90
12111;DHT22;6119;52.372;8.990;2024-01-27T15:34:20;8.00;99.90
12111;DHT22;6119;52.372;8.990;2024-01-27T15:37:07;8.00;99.90
12111;DHT22;6119;52.372;8.990;2024-01-27T15:39:56;7.90;99.90
12111;DHT22;6119;52.372;8.990;2024-01-27T15:42:43;7.90;99.90
12111;DHT22;6119;52.372;8.990;2024-01-27T15:45:30;7.80;99.90
12111;DHT22;6119;52.372;8.990;2024-01-27T15:48:19;7.90;99.90
12111;DHT22;6119;52.372;8.990;2024-01-27T15:51:06;7.80;99.90
12111;DHT22;6119;52.372;8.990;2024-01-27T15:54:07;7.80;99.90
12111;DHT22;6119;52.372;8.990;2024-01-27T15:56:56;7.80;99.90
12111;DHT22;6119;52.372;8.990;2024-01-27T15:59:42;7.70;99.90
12111;DHT22;6119;52.372;8.990;2024-01-27T16:02:29;7.70;99.90
12111;DHT22;6119;52.372;8.990;2024-01-27T16:05:17;7.70;99.90
12111;DHT22;6119;52.372;8.990;2024-01-27T16:08:04;7.60;99.90
12111;DHT22;6119;52.372;8.990;2024-01-27T16:10:51;7.60;99.90
12111;DHT22;6119;52.372;8.990;2024-01-27T16:13:40;7.50;99.90
12111;DHT22;6119;52.372;8.990;2024-01-27T16:16:27;7.50;99.90
12111;DHT22;6119;52.372;8.990;2024-01-27T16:19:15;7.40;99.90
12111;DHT22;6119;52.372;8.990;2024-01-27T16:22:02;7.40;99.90
12111;DHT22;6119;52.372;8.990;2024-01-27T16:24:49;7.20;99.90
12111;DHT22;6119;52.372;8.990;2024-01-27T16:27:35;7.20;99.90
12111;DHT22;6119;52.372;8.990;2024-01-27T16:30:23;7.20;99.90
12111;DHT22;6119;52.372;8.990;2024-01-27T16:33:12;7.10;99.90
12111;DHT22;6119;52.372;8.990;2024-01-27T16:35:59;7.10;99.90
12111;DHT22;6119;52.372;8.990;2024-01-27T16:38:46;7.10;99.90
12111;DHT22;6119;52.372;8.990;2024-01-27T16:41:32;7.10;99.90
12111;DHT22;6119;52.372;8.990;2024-01-27T16:44:19;7.00;99.90
12111;DHT22;6119;52.372;8.990;2024-01-27T16:47:09;7.00;99.90
12111;DHT22;6119;52.372;8.990;2024-01-27T16:49:56;6.80;99.90
12111;DHT22;6119;52.372;8.990;2024-01-27T16:52:43;6.80;99.90
12111;DHT22;6119;52.372;8.990;2024-01-27T16:55:29;6.80;99.90
12111;DHT22;6119;52.372;8.990;2024-01-27T16:58:20;6.70;99.90
12111;DHT22;6119;52.372;8.990;2024-01-27T17:01:06;6.70;99.90
12111;DHT22;6119;52.372;8.990;2024-01-27T17:03:54;6.70;99.90
12111;DHT22;6119;52.372;8.990;2024-01-27T17:06:42;6.60;99.90
12111;DHT22;6119;52.372;8.990;2024-01-27T17:09:30;6.50;99.90
12111;DHT22;6119;52.372;8.990;2024-01-27T17:12:17;6.40;99.90
12111;DHT22;6119;52.372;8.990;2024-01-27T17:15:04;6.40;99.90
12111;DHT22;6119;52.372;8.990;2024-01-27T17:17:56;6.40;99.90
12111;DHT22;6119;52.372;8.990;2024-01-27T17:20:44;6.40;99.90
12111;DHT22;6119;52.372;8.990;2024-01-27T17:23:31;6.40;99.90
12111;DHT22;6119;52.372;8.990;2024-01-27T17:26:17;6.30;99.90
12111;DHT22;6119;52.372;8.990;2024-01-27T17:29:04;6.20;99.90
12111;DHT22;6119;52.372;8.990;2024-01-27T17:31:50;6.10;99.90
12111;DHT22;6119;52.372;8.990;2024-01-27T17:34:37;6.00;99.90
12111;DHT22;6119;52.372;8.990;2024-01-27T17:37:25;5.90;99.90
12111;DHT22;6119;52.372;8.990;2024-01-27T17:40:12;5.80;99.90
12111;DHT22;6119;52.372;8.990;2024-01-27T17:43:00;5.80;99.90
12111;DHT22;6119;52.372;8.990;2024-01-27T17:45:48;5.70;99.90
12111;DHT22;6119;52.372;8.990;2024-01-27T17:48:35;5.70;99.90
12111;DHT22;6119;52.372;8.990;2024-01-27T17:51:23;5.50;99.90
12111;DHT22;6119;52.372;8.990;2024-01-27T17:54:11;5.50;99.90
12111;DHT22;6119;52.372;8.990;2024-01-27T17:56:58;5.40;99.90
12111;DHT22;6119;52.372;8.990;2024-01-27T17:59:45;5.30;99.90
12111;DHT22;6119;52.372;8.990;2024-01-27T18:02:31;5.30;99.90
12111;DHT22;6119;52.372;8.990;2024-01-27T18:05:18;5.30;99.90
12111;DHT22;6119;52.372;8.990;2024-01-27T18:08:05;5.20;99.90
12111;DHT22;6119;52.372;8.990;2024-01-27T18:10:53;5.20;99.90
12111;DHT22;6119;52.372;8.990;2024-01-27T18:13:40;5.20;99.90
12111;DHT22;6119;52.372;8.990;2024-01-27T18:16:31;5.10;99.90
12111;DHT22;6119;52.372;8.990;2024-01-27T18:19:18;5.10;99.90
12111;DHT22;6119;52.372;8.990;2024-01-27T18:22:07;5.10;99.90